Time;durP1;ratioP1;P1;durP2;ratioP2;P2;SDS_P1;SDS_P2;PMS_P1;PMS_P2;Temp;Humidity;BMP_temperature;BMP_pressure;BME280_temperature;BME280_humidity;BME280_pressure;Samples;Min_cycle;Max_cycle;Signal;HPM_P1;HPM_P2
2023/04/10 00:01:52;;;;;;;68.63;11.70;;;;;;;;;;5072214;28;20205;-68
2023/04/10 00:04:19;;;;;;;72.05;13.30;;;;;;;;;;5072010;28;20712;-68
2023/04/10 00:06:47;;;;;;;70.18;13.50;;;;;;;;;;5072011;28;20235;-68
2023/04/10 00:09:14;;;;;;;68.75;12.85;;;;;;;;;;5071570;28;20706;-68
2023/04/10 00:11:41;;;;;;;70.63;12.95;;;;;;;;;;5072138;28;20209;-68
2023/04/10 00:14:09;;;;;;;72.97;14.68;;;;;;;;;;5071919;28;20212;-68
2023/04/10 00:16:36;;;;;;;71.28;14.27;;;;;;;;;;5071906;28;20301;-68
2023/04/10 00:19:04;;;;;;;74.03;14.60;;;;;;;;;;5071327;28;20235;-68
2023/04/10 00:21:31;;;;;;;69.72;12.85;;;;;;;;;;5072064;28;20213;-68
2023/04/10 00:23:58;;;;;;;72.15;14.18;;;;;;;;;;5071857;28;20214;-68
2023/04/10 00:26:26;;;;;;;70.55;13.30;;;;;;;;;;5071750;28;20211;-68
2023/04/10 00:28:53;;;;;;;71.95;14.70;;;;;;;;;;5071506;28;20225;-68
2023/04/10 00:31:20;;;;;;;70.47;13.52;;;;;;;;;;5071819;28;20208;-68
2023/04/10 00:33:47;;;;;;;71.65;13.63;;;;;;;;;;5071666;28;20579;-68
2023/04/10 00:36:16;;;;;;;72.95;15.77;;;;;;;;;;5071929;28;20205;-69
2023/04/10 00:38:43;;;;;;;71.15;14.23;;;;;;;;;;5071655;28;20236;-68
2023/04/10 00:41:10;;;;;;;72.60;14.55;;;;;;;;;;5078314;28;20205;-68
2023/04/10 00:43:37;;;;;;;73.70;14.45;;;;;;;;;;5078373;28;20231;-68
2023/04/10 00:46:05;;;;;;;73.10;15.95;;;;;;;;;;5078120;28;20215;-69
2023/04/10 00:48:32;;;;;;;75.93;16.45;;;;;;;;;;5078158;28;20225;-68
2023/04/10 00:51:00;;;;;;;72.55;14.73;;;;;;;;;;5078509;28;20266;-68
2023/04/10 00:53:29;;;;;;;75.72;15.20;;;;;;;;;;5078354;28;20201;-68
2023/04/10 00:55:56;;;;;;;73.35;14.90;;;;;;;;;;5078158;28;20215;-68
2023/04/10 00:58:25;;;;;;;73.57;14.60;;;;;;;;;;5077883;28;20235;-68
2023/04/10 01:00:52;;;;;;;73.45;14.70;;;;;;;;;;5078083;28;20282;-68
2023/04/10 01:03:20;;;;;;;76.00;14.75;;;;;;;;;;5078444;28;20681;-69
2023/04/10 01:05:50;;;;;;;73.00;15.20;;;;;;;;;;5078386;28;20354;-68
2023/04/10 01:08:23;;;;;;;74.40;14.73;;;;;;;;;;5078040;28;20221;-67
2023/04/10 01:10:55;;;;;;;72.57;15.30;;;;;;;;;;5078015;28;20220;-68
2023/04/10 01:13:22;;;;;;;74.82;16.55;;;;;;;;;;5078321;28;20247;-68
2023/04/10 01:15:53;;;;;;;76.38;15.60;;;;;;;;;;5078453;28;20572;-68
2023/04/10 01:18:23;;;;;;;74.20;15.20;;;;;;;;;;5077800;28;20780;-68
2023/04/10 01:20:50;;;;;;;72.53;14.10;;;;;;;;;;5077859;28;20215;-68
2023/04/10 01:23:41;;;;;;;74.00;13.10;;;;;;;;;;5077874;28;20578;-69
2023/04/10 01:26:11;;;;;;;74.60;16.05;;;;;;;;;;5067682;28;20624;-67
2023/04/10 01:28:56;;;;;;;75.68;14.98;;;;;;;;;;5077804;28;20232;-68
2023/04/10 01:31:27;;;;;;;71.72;13.68;;;;;;;;;;5077997;28;20591;-69
2023/04/10 01:33:59;;;;;;;72.28;14.40;;;;;;;;;;5077833;28;20564;-69
2023/04/10 01:36:28;;;;;;;72.05;14.18;;;;;;;;;;5077785;28;20204;-68
2023/04/10 01:38:56;;;;;;;77.72;13.57;;;;;;;;;;5077471;28;20319;-68
2023/04/10 01:41:23;;;;;;;73.55;14.32;;;;;;;;;;5077728;28;20205;-68
2023/04/10 01:43:52;;;;;;;71.47;14.10;;;;;;;;;;5077698;28;20700;-68
2023/04/10 01:46:19;;;;;;;74.80;16.23;;;;;;;;;;5076398;28;20219;-68
2023/04/10 01:48:48;;;;;;;72.53;13.45;;;;;;;;;;5077550;28;20252;-68
2023/04/10 01:51:16;;;;;;;73.90;14.48;;;;;;;;;;5075198;28;20211;-68
2023/04/10 01:53:44;;;;;;;73.00;14.80;;;;;;;;;;5074668;28;20594;-68
2023/04/10 01:56:11;;;;;;;77.00;15.32;;;;;;;;;;5074493;28;20589;-69
2023/04/10 01:58:39;;;;;;;73.10;14.73;;;;;;;;;;5073879;28;20235;-68
2023/04/10 02:01:06;;;;;;;73.97;14.88;;;;;;;;;;5074582;28;20211;-68
2023/04/10 02:03:33;;;;;;;74.93;15.80;;;;;;;;;;5074592;28;20194;-67
2023/04/10 02:06:08;;;;;;;71.88;14.50;;;;;;;;;;5074229;28;20209;-68
2023/04/10 02:08:37;;;;;;;74.25;15.70;;;;;;;;;;5073905;28;20221;-68
2023/04/10 02:11:12;;;;;;;77.50;15.77;;;;;;;;;;5074633;28;20679;-69
2023/04/10 02:13:40;;;;;;;73.05;15.73;;;;;;;;;;5074602;28;20205;-68
2023/04/10 02:16:08;;;;;;;72.65;15.07;;;;;;;;;;5074271;28;20205;-68
2023/04/10 02:18:36;;;;;;;74.75;16.90;;;;;;;;;;5073708;28;20251;-68
2023/04/10 02:21:05;;;;;;;75.57;14.50;;;;;;;;;;5074075;28;20270;-68
2023/04/10 02:23:32;;;;;;;73.60;14.55;;;;;;;;;;5073789;28;20268;-68
2023/04/10 02:25:59;;;;;;;74.10;15.68;;;;;;;;;;5074225;28;20205;-68
2023/04/10 02:28:26;;;;;;;76.28;16.70;;;;;;;;;;5073968;28;20225;-68
2023/04/10 02:30:53;;;;;;;74.50;15.77;;;;;;;;;;5073789;28;20205;-68
2023/04/10 02:33:20;;;;;;;79.35;16.17;;;;;;;;;;5073833;28;20207;-67
2023/04/10 02:35:48;;;;;;;73.82;14.95;;;;;;;;;;5073655;28;20688;-68
2023/04/10 02:38:17;;;;;;;72.50;15.38;;;;;;;;;;5073663;28;20232;-69
2023/04/10 02:40:45;;;;;;;74.78;15.85;;;;;;;;;;5073736;28;20248;-68
2023/04/10 02:43:12;;;;;;;73.63;14.18;;;;;;;;;;5073820;28;20300;-68
2023/04/10 02:45:39;;;;;;;73.53;15.25;;;;;;;;;;5073779;28;20213;-68
2023/04/10 02:48:06;;;;;;;73.90;15.63;;;;;;;;;;5073464;28;20580;-68
2023/04/10 02:50:33;;;;;;;76.57;17.83;;;;;;;;;;5073102;28;20212;-68
2023/04/10 02:53:00;;;;;;;75.30;15.68;;;;;;;;;;5073897;28;20205;-68
2023/04/10 02:55:29;;;;;;;73.15;15.55;;;;;;;;;;5073644;28;20486;-68
2023/04/10 02:57:56;;;;;;;76.18;16.58;;;;;;;;;;5073271;28;20247;-68
2023/04/10 03:00:23;;;;;;;72.43;14.63;;;;;;;;;;5073024;28;20324;-68
2023/04/10 03:02:50;;;;;;;76.13;15.88;;;;;;;;;;5073155;28;20583;-68
2023/04/10 03:05:17;;;;;;;74.47;15.10;;;;;;;;;;5073004;28;20206;-67
2023/04/10 03:07:44;;;;;;;73.35;14.15;;;;;;;;;;5074204;28;20221;-69
2023/04/10 03:10:12;;;;;;;75.80;15.65;;;;;;;;;;5073047;28;20699;-68
2023/04/10 03:12:40;;;;;;;74.32;14.65;;;;;;;;;;5073084;28;20205;-68
2023/04/10 03:15:08;;;;;;;75.43;14.25;;;;;;;;;;5073361;28;20208;-68
2023/04/10 03:17:35;;;;;;;74.78;15.32;;;;;;;;;;5073063;28;20205;-68
2023/04/10 03:20:02;;;;;;;75.80;15.73;;;;;;;;;;5072573;28;20233;-69
2023/04/10 03:22:31;;;;;;;74.20;14.85;;;;;;;;;;5073408;28;20209;-68
2023/04/10 03:24:58;;;;;;;73.80;15.60;;;;;;;;;;5072945;28;20266;-68
2023/04/10 03:27:25;;;;;;;73.47;15.07;;;;;;;;;;5072955;28;20586;-68
2023/04/10 03:29:54;;;;;;;73.60;15.25;;;;;;;;;;5072758;28;20205;-69
2023/04/10 03:32:21;;;;;;;74.50;16.30;;;;;;;;;;5072811;28;20205;-68
2023/04/10 03:34:48;;;;;;;76.43;16.30;;;;;;;;;;5072987;28;20205;-68
2023/04/10 03:37:15;;;;;;;75.75;16.75;;;;;;;;;;5072804;28;20209;-68
2023/04/10 03:39:42;;;;;;;74.10;14.45;;;;;;;;;;5072477;28;20232;-68
2023/04/10 03:42:10;;;;;;;76.85;15.82;;;;;;;;;;5072882;28;20200;-69
2023/04/10 03:44:37;;;;;;;76.70;14.93;;;;;;;;;;5072644;28;20220;-69
2023/04/10 03:47:05;;;;;;;76.10;16.48;;;;;;;;;;5072769;28;20224;-68
2023/04/10 03:49:32;;;;;;;75.32;15.30;;;;;;;;;;5072239;28;20232;-69
2023/04/10 03:51:59;;;;;;;74.25;16.15;;;;;;;;;;5072625;28;20586;-69
2023/04/10 03:54:27;;;;;;;76.93;15.48;;;;;;;;;;5072674;28;20304;-68
2023/04/10 03:56:55;;;;;;;74.90;15.25;;;;;;;;;;5072619;28;20668;-68
2023/04/10 03:59:22;;;;;;;73.97;16.10;;;;;;;;;;5071863;28;20247;-68
2023/04/10 04:01:49;;;;;;;74.97;15.40;;;;;;;;;;5072692;28;20205;-68
2023/04/10 04:04:18;;;;;;;72.45;14.60;;;;;;;;;;5072496;28;20674;-68
2023/04/10 04:06:45;;;;;;;74.47;14.70;;;;;;;;;;5072466;28;20212;-68
2023/04/10 04:09:12;;;;;;;72.70;14.35;;;;;;;;;;5071912;28;20231;-68
2023/04/10 04:11:39;;;;;;;75.53;16.17;;;;;;;;;;5072472;28;20474;-68
2023/04/10 04:14:06;;;;;;;74.45;14.25;;;;;;;;;;5071599;28;20224;-68
2023/04/10 04:16:34;;;;;;;72.47;14.20;;;;;;;;;;5072227;28;20672;-68
2023/04/10 04:19:01;;;;;;;74.93;15.95;;;;;;;;;;5071853;28;20221;-68
2023/04/10 04:21:30;;;;;;;70.75;13.80;;;;;;;;;;5071959;28;20717;-67
2023/04/10 04:23:57;;;;;;;73.88;14.63;;;;;;;;;;5071947;28;20219;-68
2023/04/10 04:26:25;;;;;;;73.57;14.75;;;;;;;;;;5071917;28;20208;-68
2023/04/10 04:28:52;;;;;;;75.45;15.75;;;;;;;;;;5071841;28;20221;-68
2023/04/10 04:31:19;;;;;;;73.63;14.95;;;;;;;;;;5072396;28;20197;-68
2023/04/10 04:33:46;;;;;;;72.85;14.13;;;;;;;;;;5072230;28;20211;-68
2023/04/10 04:36:13;;;;;;;71.57;14.40;;;;;;;;;;5072275;28;20621;-69
2023/04/10 04:38:41;;;;;;;73.80;14.95;;;;;;;;;;5071999;28;20225;-68
2023/04/10 04:41:09;;;;;;;72.18;15.32;;;;;;;;;;5071754;28;20278;-67
2023/04/10 04:43:36;;;;;;;72.15;15.10;;;;;;;;;;5071879;28;20215;-68
2023/04/10 04:46:03;;;;;;;73.00;14.98;;;;;;;;;;5071743;28;20205;-67
2023/04/10 04:48:30;;;;;;;71.63;13.52;;;;;;;;;;5071547;28;20593;-68
2023/04/10 04:50:57;;;;;;;73.05;14.18;;;;;;;;;;5071516;28;20197;-67
2023/04/10 04:53:24;;;;;;;73.68;15.45;;;;;;;;;;5071700;28;20207;-68
2023/04/10 04:55:52;;;;;;;74.72;14.70;;;;;;;;;;5071475;28;20212;-68
2023/04/10 04:58:20;;;;;;;73.50;14.68;;;;;;;;;;5071621;28;20232;-68
2023/04/10 05:00:47;;;;;;;73.43;14.05;;;;;;;;;;5071319;28;20324;-68
2023/04/10 05:03:15;;;;;;;71.80;14.43;;;;;;;;;;5071352;28;20692;-68
2023/04/10 05:05:42;;;;;;;76.25;14.23;;;;;;;;;;5071400;28;20201;-68
2023/04/10 05:08:09;;;;;;;74.50;15.75;;;;;;;;;;5071242;28;20257;-67
2023/04/10 05:10:36;;;;;;;75.28;15.30;;;;;;;;;;5071382;28;20197;-67
2023/04/10 05:13:05;;;;;;;71.35;13.82;;;;;;;;;;5071549;28;20213;-68
2023/04/10 05:15:32;;;;;;;73.00;15.02;;;;;;;;;;5071436;28;20233;-68
2023/04/10 05:17:59;;;;;;;71.43;14.40;;;;;;;;;;5071222;28;20225;-67
2023/04/10 05:20:26;;;;;;;72.05;14.55;;;;;;;;;;5071133;28;20313;-68
2023/04/10 05:22:53;;;;;;;73.65;15.15;;;;;;;;;;5071292;28;20213;-68
2023/04/10 05:25:20;;;;;;;72.88;14.73;;;;;;;;;;5071342;28;20209;-68
2023/04/10 05:27:47;;;;;;;71.95;13.65;;;;;;;;;;5074251;28;20726;-67
2023/04/10 05:30:16;;;;;;;77.10;15.15;;;;;;;;;;5074748;28;20201;-68
2023/04/10 05:32:44;;;;;;;72.18;14.80;;;;;;;;;;5075047;28;20213;-67
2023/04/10 05:35:11;;;;;;;75.78;15.70;;;;;;;;;;5075326;28;20201;-67
2023/04/10 05:37:39;;;;;;;74.95;14.45;;;;;;;;;;5074709;28;20211;-68
2023/04/10 05:40:06;;;;;;;72.95;14.88;;;;;;;;;;5074519;28;20228;-68
2023/04/10 05:42:34;;;;;;;71.82;15.70;;;;;;;;;;5074859;28;20201;-68
2023/04/10 05:45:01;;;;;;;71.43;14.70;;;;;;;;;;5074679;28;20285;-68
2023/04/10 05:47:30;;;;;;;71.32;13.07;;;;;;;;;;5074543;28;20201;-68
2023/04/10 05:49:57;;;;;;;73.07;15.45;;;;;;;;;;5074484;28;20209;-68
2023/04/10 05:52:24;;;;;;;70.35;14.20;;;;;;;;;;5074801;28;20212;-68
2023/04/10 05:54:51;;;;;;;73.07;14.35;;;;;;;;;;5074976;28;20208;-69
2023/04/10 05:57:18;;;;;;;71.38;14.02;;;;;;;;;;5074604;28;20630;-68
2023/04/10 05:59:45;;;;;;;71.72;13.13;;;;;;;;;;5073943;28;20228;-68
2023/04/10 06:02:12;;;;;;;70.72;12.90;;;;;;;;;;5074286;28;20201;-69
2023/04/10 06:04:41;;;;;;;72.10;14.00;;;;;;;;;;5074341;28;20701;-68
2023/04/10 06:07:08;;;;;;;72.35;13.13;;;;;;;;;;5074548;28;20247;-68
2023/04/10 06:09:35;;;;;;;71.13;13.77;;;;;;;;;;5073867;28;20240;-68
2023/04/10 06:12:02;;;;;;;70.78;12.00;;;;;;;;;;5074358;28;20224;-67
2023/04/10 06:14:29;;;;;;;70.20;12.65;;;;;;;;;;5074243;28;20211;-68
2023/04/10 06:16:56;;;;;;;68.07;12.60;;;;;;;;;;5074048;28;20231;-68
2023/04/10 06:19:23;;;;;;;70.22;12.65;;;;;;;;;;5074089;28;20232;-68
2023/04/10 06:21:52;;;;;;;68.47;12.23;;;;;;;;;;5073983;28;20227;-67
2023/04/10 06:24:19;;;;;;;68.22;12.02;;;;;;;;;;5074161;28;20217;-68
2023/04/10 06:26:47;;;;;;;69.68;12.23;;;;;;;;;;5073997;28;20225;-68
2023/04/10 06:29:14;;;;;;;70.55;12.77;;;;;;;;;;5073426;28;20225;-68
2023/04/10 06:31:41;;;;;;;71.20;12.52;;;;;;;;;;5073911;28;20208;-69
2023/04/10 06:34:08;;;;;;;68.90;11.98;;;;;;;;;;5073985;28;20227;-67
2023/04/10 06:36:35;;;;;;;70.03;12.65;;;;;;;;;;5073670;28;20201;-69
2023/04/10 06:39:05;;;;;;;69.25;11.02;;;;;;;;;;5073273;28;20221;-68
2023/04/10 06:41:32;;;;;;;68.82;12.45;;;;;;;;;;5073616;28;20220;-67
2023/04/10 06:43:59;;;;;;;66.50;11.57;;;;;;;;;;5073505;28;20209;-67
2023/04/10 06:46:27;;;;;;;69.88;11.80;;;;;;;;;;5074044;28;20450;-67
2023/04/10 06:48:54;;;;;;;67.78;11.95;;;;;;;;;;5073437;28;20229;-68
2023/04/10 06:51:22;;;;;;;68.55;11.30;;;;;;;;;;5073636;28;20200;-68
2023/04/10 06:53:49;;;;;;;72.43;11.48;;;;;;;;;;5073491;28;20220;-68
2023/04/10 06:56:17;;;;;;;68.15;10.85;;;;;;;;;;5073384;28;20544;-69
2023/04/10 06:58:44;;;;;;;65.00;9.75;;;;;;;;;;5072772;28;20228;-68
2023/04/10 07:01:11;;;;;;;66.60;10.43;;;;;;;;;;5073132;28;20732;-68
2023/04/10 07:03:38;;;;;;;67.88;11.07;;;;;;;;;;5073336;28;20205;-68
2023/04/10 07:06:07;;;;;;;66.55;10.07;;;;;;;;;;5073281;28;20211;-67
2023/04/10 07:08:34;;;;;;;65.07;9.50;;;;;;;;;;5072632;28;20283;-68
2023/04/10 07:11:01;;;;;;;66.47;10.47;;;;;;;;;;5072970;28;20477;-68
2023/04/10 07:13:29;;;;;;;65.40;8.40;;;;;;;;;;5073226;28;21070;-67
2023/04/10 07:15:57;;;;;;;64.43;8.23;;;;;;;;;;5073041;28;20872;-69
2023/04/10 07:18:24;;;;;;;64.40;8.03;;;;;;;;;;5072828;28;20474;-68
2023/04/10 07:20:52;;;;;;;66.27;10.00;;;;;;;;;;5072592;28;20479;-67
2023/04/10 07:23:20;;;;;;;65.20;10.00;;;;;;;;;;5072656;28;20470;-68
2023/04/10 07:25:47;;;;;;;62.80;8.87;;;;;;;;;;5072714;28;20509;-69
2023/04/10 07:28:14;;;;;;;65.50;8.50;;;;;;;;;;5072713;28;20471;-68
2023/04/10 07:30:42;;;;;;;64.20;8.80;;;;;;;;;;5072398;28;20451;-69
2023/04/10 07:33:09;;;;;;;65.67;8.80;;;;;;;;;;5072705;28;20458;-68
2023/04/10 07:35:37;;;;;;;64.60;9.40;;;;;;;;;;5072586;28;20453;-67
2023/04/10 07:38:04;;;;;;;63.77;8.83;;;;;;;;;;5072365;28;20813;-68
2023/04/10 07:40:31;;;;;;;63.30;7.87;;;;;;;;;;5072390;28;20479;-67
2023/04/10 07:42:58;;;;;;;63.37;8.80;;;;;;;;;;5072359;28;20533;-67
2023/04/10 07:45:26;;;;;;;65.20;8.50;;;;;;;;;;5072507;28;20447;-68
2023/04/10 07:47:55;;;;;;;64.10;9.13;;;;;;;;;;5072344;28;20503;-68
2023/04/10 07:50:22;;;;;;;63.97;8.80;;;;;;;;;;5071353;28;20455;-68
2023/04/10 07:52:49;;;;;;;61.97;7.63;;;;;;;;;;5072217;28;20449;-68
2023/04/10 07:55:16;;;;;;;62.07;8.00;;;;;;;;;;5072576;28;20452;-68
2023/04/10 07:57:43;;;;;;;64.47;8.37;;;;;;;;;;5072064;28;20451;-69
2023/04/10 08:00:11;;;;;;;63.40;8.03;;;;;;;;;;5071938;28;20458;-68
2023/04/10 08:02:39;;;;;;;62.70;8.07;;;;;;;;;;5072320;28;20485;-69
2023/04/10 08:05:08;;;;;;;65.20;7.83;;;;;;;;;;5072000;28;20984;-68
2023/04/10 08:07:37;;;;;;;63.13;8.23;;;;;;;;;;5072196;28;20454;-68
2023/04/10 08:10:04;;;;;;;62.90;8.47;;;;;;;;;;5071902;28;20505;-68
2023/04/10 08:12:33;;;;;;;62.67;7.90;;;;;;;;;;5072263;28;20451;-68
2023/04/10 08:15:00;;;;;;;65.37;8.70;;;;;;;;;;5071975;28;20962;-67
2023/04/10 08:17:27;;;;;;;63.40;7.80;;;;;;;;;;5072406;28;20451;-67
2023/04/10 08:19:55;;;;;;;62.40;7.47;;;;;;;;;;5071994;28;20459;-67
2023/04/10 08:22:23;;;;;;;61.77;7.53;;;;;;;;;;5071817;28;20479;-67
2023/04/10 08:24:50;;;;;;;62.17;8.23;;;;;;;;;;5071933;28;20455;-69
2023/04/10 08:27:17;;;;;;;62.40;7.67;;;;;;;;;;5071898;28;20458;-68
2023/04/10 08:29:44;;;;;;;61.63;6.97;;;;;;;;;;5071326;28;20984;-69
2023/04/10 08:32:12;;;;;;;61.33;6.50;;;;;;;;;;5071758;28;20446;-67
2023/04/10 08:34:39;;;;;;;61.17;6.67;;;;;;;;;;5071913;28;20447;-68
2023/04/10 08:37:08;;;;;;;62.50;7.70;;;;;;;;;;5071745;28;20451;-68
2023/04/10 08:39:36;;;;;;;60.70;6.67;;;;;;;;;;5071425;28;20482;-68
2023/04/10 08:42:03;;;;;;;62.40;6.90;;;;;;;;;;5071814;28;20487;-68
2023/04/10 08:44:31;;;;;;;62.00;6.90;;;;;;;;;;5071721;28;20455;-68
2023/04/10 08:46:59;;;;;;;62.77;6.80;;;;;;;;;;5071574;28;20454;-68
2023/04/10 08:49:30;;;;;;;61.57;6.80;;;;;;;;;;5071180;28;20566;-68
2023/04/10 08:51:58;;;;;;;61.40;6.40;;;;;;;;;;5071760;28;20821;-68
2023/04/10 08:54:26;;;;;;;61.37;7.03;;;;;;;;;;5071806;28;20529;-68
2023/04/10 08:56:57;;;;;;;61.07;5.50;;;;;;;;;;5071791;28;20450;-68
2023/04/10 08:59:24;;;;;;;61.40;6.63;;;;;;;;;;5071298;28;20991;-68
2023/04/10 09:01:52;;;;;;;59.50;5.27;;;;;;;;;;5075071;28;20482;-68
2023/04/10 09:04:19;;;;;;;59.77;4.80;;;;;;;;;;5075738;28;20483;-67
2023/04/10 09:06:46;;;;;;;60.67;5.77;;;;;;;;;;5075603;28;20530;-68
2023/04/10 09:09:13;;;;;;;60.20;5.90;;;;;;;;;;5075175;28;20473;-68
2023/04/10 09:12:02;;;;;;;60.80;5.90;;;;;;;;;;5075303;28;20940;-68
2023/04/10 09:14:31;;;;;;;60.10;5.90;;;;;;;;;;5075351;28;21000;-67
2023/04/10 09:17:15;;;;;;;61.20;5.93;;;;;;;;;;5075579;28;20451;-69
2023/04/10 09:19:42;;;;;;;59.47;5.20;;;;;;;;;;5074891;28;20525;-68
2023/04/10 09:22:09;;;;;;;59.60;5.37;;;;;;;;;;5075043;28;20490;-68
2023/04/10 09:24:37;;;;;;;60.60;6.20;;;;;;;;;;5075167;28;20955;-67
2023/04/10 09:27:06;;;;;;;61.20;6.20;;;;;;;;;;5075286;28;20508;-67
2023/04/10 09:29:43;;;;;;;60.00;5.23;;;;;;;;;;5074778;28;20467;-68
2023/04/10 09:32:10;;;;;;;60.20;5.23;;;;;;;;;;5075083;28;20450;-69
2023/04/10 09:34:52;;;;;;;59.63;5.30;;;;;;;;;;5074944;28;20447;-68
2023/04/10 09:37:21;;;;;;;59.70;5.10;;;;;;;;;;5075168;28;20858;-67
2023/04/10 09:39:48;;;;;;;59.53;5.07;;;;;;;;;;5074710;28;20467;-68
2023/04/10 09:42:17;;;;;;;60.17;5.47;;;;;;;;;;5074780;28;20487;-68
2023/04/10 09:44:44;;;;;;;60.33;5.37;;;;;;;;;;5074960;28;20541;-68
2023/04/10 09:47:17;;;;;;;59.27;4.87;;;;;;;;;;5074644;28;20974;-68
2023/04/10 09:49:48;;;;;;;60.20;5.50;;;;;;;;;;5074556;28;20550;-69
2023/04/10 09:52:18;;;;;;;59.47;5.13;;;;;;;;;;5074580;28;20449;-68
2023/04/10 09:54:45;;;;;;;59.70;5.20;;;;;;;;;;5074539;28;20439;-67
2023/04/10 09:57:14;;;;;;;59.17;5.30;;;;;;;;;;5074521;28;20948;-68
2023/04/10 09:59:45;;;;;;;59.27;5.03;;;;;;;;;;5074254;28;20808;-69
2023/04/10 10:02:13;;;;;;;59.77;5.03;;;;;;;;;;5074656;28;20494;-69
2023/04/10 10:04:42;;;;;;;59.20;4.70;;;;;;;;;;5074509;28;20509;-68
2023/04/10 10:07:09;;;;;;;59.40;5.40;;;;;;;;;;5074493;28;20839;-68
2023/04/10 10:09:37;;;;;;;58.83;4.80;;;;;;;;;;5073970;28;20483;-66
2023/04/10 10:12:05;;;;;;;59.13;4.90;;;;;;;;;;5073566;28;20444;-66
2023/04/10 10:14:35;;;;;;;59.00;4.70;;;;;;;;;;5074162;28;20448;-68
2023/04/10 10:17:09;;;;;;;58.97;4.77;;;;;;;;;;5074335;28;20848;-69
2023/04/10 10:19:41;;;;;;;59.07;5.20;;;;;;;;;;5074162;28;20471;-69
2023/04/10 10:22:09;;;;;;;59.70;4.80;;;;;;;;;;5074087;28;20481;-68
2023/04/10 10:24:38;;;;;;;58.87;4.93;;;;;;;;;;5073873;28;20808;-69
2023/04/10 10:27:07;;;;;;;59.07;4.80;;;;;;;;;;5074245;28;20833;-70
2023/04/10 10:29:38;;;;;;;58.77;4.20;;;;;;;;;;5073855;28;20467;-69
2023/04/10 10:32:07;;;;;;;59.50;4.73;;;;;;;;;;5074043;28;20451;-68
2023/04/10 10:34:34;;;;;;;59.07;5.20;;;;;;;;;;5073912;28;20447;-67
2023/04/10 10:37:01;;;;;;;58.63;4.23;;;;;;;;;;5073875;28;20547;-65
2023/04/10 10:39:32;;;;;;;58.20;4.00;;;;;;;;;;5073368;28;21007;-69
2023/04/10 10:42:02;;;;;;;58.70;4.53;;;;;;;;;;5073842;28;20483;-68
2023/04/10 10:44:33;;;;;;;58.40;4.40;;;;;;;;;;5073806;28;20448;-69
2023/04/10 10:47:05;;;;;;;58.00;3.90;;;;;;;;;;5073735;28;20462;-69
2023/04/10 10:49:50;;;;;;;58.17;4.10;;;;;;;;;;5073214;28;20485;-69
2023/04/10 10:52:36;;;;;;;58.10;4.00;;;;;;;;;;5073500;28;20541;-68
2023/04/10 10:55:18;;;;;;;57.90;3.60;;;;;;;;;;5073598;28;20465;-67
2023/04/10 10:57:47;;;;;;;57.70;3.90;;;;;;;;;;5073177;28;20460;-69
2023/04/10 11:00:14;;;;;;;58.00;3.80;;;;;;;;;;5072909;28;20449;-68
2023/04/10 11:02:41;;;;;;;57.87;3.67;;;;;;;;;;5073452;28;20536;-67
2023/04/10 11:05:08;;;;;;;58.23;3.80;;;;;;;;;;5073424;28;20448;-68
2023/04/10 11:07:54;;;;;;;58.07;3.57;;;;;;;;;;5073160;28;20449;-67
2023/04/10 11:10:44;;;;;;;58.10;3.60;;;;;;;;;;5072945;28;20455;-67
2023/04/10 11:13:17;;;;;;;58.60;4.20;;;;;;;;;;5072998;28;20447;-68
2023/04/10 11:15:45;;;;;;;58.17;3.80;;;;;;;;;;5073129;28;20455;-67
2023/04/10 11:18:12;;;;;;;57.90;3.90;;;;;;;;;;5073051;28;20467;-67
2023/04/10 11:21:09;;;;;;;58.00;3.93;;;;;;;;;;5072732;28;20625;-68
2023/04/10 11:23:36;;;;;;;58.20;4.20;;;;;;;;;;5072645;28;20487;-66
2023/04/10 11:26:06;;;;;;;58.13;3.90;;;;;;;;;;5073020;28;20457;-67
2023/04/10 11:28:40;;;;;;;57.57;3.50;;;;;;;;;;5072769;28;20521;-67
2023/04/10 11:31:18;;;;;;;58.00;3.20;;;;;;;;;;5073005;28;20455;-67
2023/04/10 11:33:45;;;;;;;58.27;3.83;;;;;;;;;;5072646;28;20841;-67
2023/04/10 11:36:14;;;;;;;58.43;3.23;;;;;;;;;;5072815;28;20447;-66
2023/04/10 11:38:41;;;;;;;57.53;3.13;;;;;;;;;;5072093;28;20463;-68
2023/04/10 11:41:10;;;;;;;57.80;3.30;;;;;;;;;;5072539;28;20547;-67
2023/04/10 11:43:38;;;;;;;58.40;3.63;;;;;;;;;;5072454;28;20498;-66
2023/04/10 11:46:06;;;;;;;57.67;3.10;;;;;;;;;;5072387;28;20455;-67
2023/04/10 11:48:33;;;;;;;58.07;3.50;;;;;;;;;;5072296;28;20471;-67
2023/04/10 11:51:07;;;;;;;57.50;3.30;;;;;;;;;;5072294;28;20454;-67
2023/04/10 11:53:34;;;;;;;57.10;2.77;;;;;;;;;;5072371;28;20451;-67
2023/04/10 11:56:02;;;;;;;57.70;3.23;;;;;;;;;;5072431;28;20936;-67
2023/04/10 11:58:31;;;;;;;57.17;3.00;;;;;;;;;;5071959;28;20468;-68
2023/04/10 12:01:00;;;;;;;57.40;3.07;;;;;;;;;;5072189;28;20526;-67
2023/04/10 12:03:36;;;;;;;57.97;3.27;;;;;;;;;;5072299;28;20491;-67
2023/04/10 12:06:04;;;;;;;56.90;3.03;;;;;;;;;;5072370;28;20543;-67
2023/04/10 12:08:32;;;;;;;57.53;2.97;;;;;;;;;;5071926;28;20467;-67
2023/04/10 12:10:59;;;;;;;57.27;3.30;;;;;;;;;;5071976;28;20454;-67
2023/04/10 12:13:26;;;;;;;57.00;3.07;;;;;;;;;;5072013;28;20439;-68
2023/04/10 12:15:55;;;;;;;57.80;3.50;;;;;;;;;;5071953;28;20454;-68
2023/04/10 12:18:23;;;;;;;57.40;3.40;;;;;;;;;;5072126;28;20471;-66
2023/04/10 12:20:50;;;;;;;57.70;3.00;;;;;;;;;;5071740;28;20455;-67
2023/04/10 12:23:18;;;;;;;57.27;2.80;;;;;;;;;;5071669;28;20491;-68
2023/04/10 12:25:45;;;;;;;57.77;3.13;;;;;;;;;;5071742;28;20455;-68
2023/04/10 12:28:17;;;;;;;56.97;2.50;;;;;;;;;;5072112;28;20459;-66
2023/04/10 12:30:47;;;;;;;56.90;2.80;;;;;;;;;;5071620;28;20447;-67
2023/04/10 12:33:15;;;;;;;56.60;2.20;;;;;;;;;;5071713;28;20475;-68
2023/04/10 12:35:42;;;;;;;57.17;2.90;;;;;;;;;;5071479;28;20447;-66
2023/04/10 12:38:10;;;;;;;57.10;2.77;;;;;;;;;;5071485;28;20469;-67
2023/04/10 12:40:37;;;;;;;57.40;2.50;;;;;;;;;;5071688;28;20538;-67
2023/04/10 12:43:04;;;;;;;58.07;2.83;;;;;;;;;;5071803;28;20519;-67
2023/04/10 12:45:44;;;;;;;57.60;2.67;;;;;;;;;;5071833;28;20455;-68
2023/04/10 12:48:11;;;;;;;56.80;2.70;;;;;;;;;;5071498;28;20550;-66
2023/04/10 12:50:48;;;;;;;57.47;2.60;;;;;;;;;;5071288;28;20451;-67
2023/04/10 12:53:15;;;;;;;57.20;2.60;;;;;;;;;;5071925;28;20819;-68
2023/04/10 12:55:42;;;;;;;56.70;2.30;;;;;;;;;;5071777;28;20443;-66
2023/04/10 12:58:20;;;;;;;57.30;2.57;;;;;;;;;;5071677;28;20581;-67
2023/04/10 13:00:47;;;;;;;57.20;2.60;;;;;;;;;;5071373;28;20450;-66
2023/04/10 13:03:14;;;;;;;57.40;2.60;;;;;;;;;;5071362;28;20479;-69
2023/04/10 13:05:41;;;;;;;58.30;2.77;;;;;;;;;;5071663;28;20538;-68
2023/04/10 13:08:10;;;;;;;56.80;2.60;;;;;;;;;;5071589;28;20468;-67
2023/04/10 13:10:37;;;;;;;57.23;2.80;;;;;;;;;;5071365;28;20967;-67
2023/04/10 13:13:05;;;;;;;57.57;2.80;;;;;;;;;;5071627;28;20466;-71
2023/04/10 13:15:34;;;;;;;57.13;2.80;;;;;;;;;;5071350;28;20545;-70
2023/04/10 13:18:01;;;;;;;57.47;2.77;;;;;;;;;;5071216;28;21025;-70
2023/04/10 13:20:28;;;;;;;58.40;2.73;;;;;;;;;;5071438;28;20455;-69
2023/04/10 13:22:55;;;;;;;58.10;2.97;;;;;;;;;;5071386;28;20482;-69
2023/04/10 13:25:24;;;;;;;57.47;2.83;;;;;;;;;;5071263;28;20841;-67
2023/04/10 13:27:51;;;;;;;57.63;3.37;;;;;;;;;;5071248;28;20467;-67
2023/04/10 13:30:18;;;;;;;57.43;2.87;;;;;;;;;;5070721;28;20450;-69
2023/04/10 13:32:45;;;;;;;58.10;2.73;;;;;;;;;;5071129;28;20932;-67
2023/04/10 13:35:12;;;;;;;58.00;3.97;;;;;;;;;;5071339;28;20450;-67
2023/04/10 13:37:39;;;;;;;58.43;3.33;;;;;;;;;;5071340;28;20447;-68
2023/04/10 13:40:07;;;;;;;58.00;3.47;;;;;;;;;;5070993;28;20562;-66
2023/04/10 13:42:35;;;;;;;58.20;3.47;;;;;;;;;;5071011;28;20534;-68
2023/04/10 13:45:02;;;;;;;58.30;3.73;;;;;;;;;;5071385;28;20458;-67
2023/04/10 13:47:29;;;;;;;58.27;3.20;;;;;;;;;;5072364;28;20447;-70
2023/04/10 13:49:57;;;;;;;57.90;3.27;;;;;;;;;;5074340;28;20451;-67
2023/04/10 13:52:24;;;;;;;57.83;3.20;;;;;;;;;;5074837;28;20450;-70
2023/04/10 13:54:51;;;;;;;57.20;3.10;;;;;;;;;;5074638;28;20508;-71
2023/04/10 13:57:18;;;;;;;57.37;3.00;;;;;;;;;;5074489;28;20453;-70
2023/04/10 13:59:46;;;;;;;57.67;3.10;;;;;;;;;;5074054;28;20471;-67
2023/04/10 14:02:13;;;;;;;58.30;3.17;;;;;;;;;;5074536;28;20451;-67
2023/04/10 14:04:41;;;;;;;57.50;2.97;;;;;;;;;;5074331;28;20450;-65
2023/04/10 14:07:09;;;;;;;57.77;3.07;;;;;;;;;;5074663;28;20513;-67
2023/04/10 14:09:36;;;;;;;57.47;3.07;;;;;;;;;;5073983;28;20473;-67
2023/04/10 14:12:03;;;;;;;57.77;3.17;;;;;;;;;;5074530;28;20810;-66
2023/04/10 14:14:30;;;;;;;58.00;3.40;;;;;;;;;;5074472;28;20963;-67
2023/04/10 14:16:59;;;;;;;58.20;3.60;;;;;;;;;;5074140;28;20455;-68
2023/04/10 14:19:26;;;;;;;57.40;2.90;;;;;;;;;;5074043;28;20472;-66
2023/04/10 14:21:53;;;;;;;57.60;3.07;;;;;;;;;;5074218;28;20447;-66
2023/04/10 14:24:21;;;;;;;57.27;3.00;;;;;;;;;;5073877;28;20489;-66
2023/04/10 14:26:48;;;;;;;57.47;2.83;;;;;;;;;;5074200;28;20870;-66
2023/04/10 14:29:15;;;;;;;58.20;3.30;;;;;;;;;;5073825;28;20473;-67
2023/04/10 14:31:42;;;;;;;62.00;12.07;;;;;;;;;;5073919;28;20443;-67